October came early this year

ESSA 101610Z 110024 07007KT 0500 FG VV002 TEMPO 0007 4000
BR BKN007 BECMG 0609 9999 BKN015 TEMPO 0924 4000 SHRA BKN020CB
PROB40 1924 BKN009=

Advertisements

Leave a Reply

Fill in your details below or click an icon to log in:

WordPress.com Logo

You are commenting using your WordPress.com account. Log Out / Change )

Twitter picture

You are commenting using your Twitter account. Log Out / Change )

Facebook photo

You are commenting using your Facebook account. Log Out / Change )

Google+ photo

You are commenting using your Google+ account. Log Out / Change )

Connecting to %s

%d bloggers like this: